Flight Track Log - Related Links

Times and Time Zones

All times are in EDT time to prevent confusion due to time zone crossing. See the ACA272 flight status page for this flight to view local times or setup timezone preferences in your user account.

Time Position Orientation Groundspeed Altitude Reporting Facility
EDT Latitude Longitude Course Direction KTS MPH feet Rate Location/Type
Sat 07:44:00 PM 49.9167 -97.2333 90° East 150 173 2,100  Level Winnipeg Center
Sat 07:45:00 PM 49.9667 -97.2000 23° Northeast 190 219 3,800 2,200 Climbing Winnipeg Center
Sat 07:46:00 PM 49.9106 -96.4585 84° East  Level FlightAware Approximate
Sat 07:46:00 PM 50.0167 -97.1667 23° Northeast 230 265 6,500  Level Winnipeg Center
Sat 07:47:00 PM 49.9167 -96.2650 90° East  Level FlightAware Approximate
Sat 07:47:00 PM 50.0167 -97.0500 90° East 280 322 9,600  Level Winnipeg Center
Sat 07:48:00 PM 49.9169 -96.0710 90° East  Level FlightAware Approximate
Sat 07:48:00 PM 50.0000 -96.9167 101° East 330 380 11,700  Level Winnipeg Center
Sat 07:49:00 PM 50.0000 -96.7500 90° East 360 414 14,300 2,650 Climbing Winnipeg Center
Sat 07:50:00 PM 50.0000 -96.6000 90° East 370 426 17,000 2,400 Climbing Winnipeg Center
Sat 07:51:00 PM 49.9833 -96.4167 98° East 380 437 19,100 2,100 Climbing Winnipeg Center
Sat 07:52:00 PM 49.9833 -96.2667 90° East 390 449 21,200 1,950 Climbing Winnipeg Center
Sat 07:53:00 PM 49.9667 -96.0833 98° East 400 460 23,000 1,800 Climbing Winnipeg Center
Sat 07:54:00 PM 49.9500 -95.9000 98° East 420 483 24,800 1,650 Climbing Winnipeg Center
Sat 07:55:00 PM 49.9333 -95.7167 98° East 430 495 26,300 1,650 Climbing Winnipeg Center
Sat 07:56:00 PM 49.9333 -95.5167 90° East 440 506 28,100 1,650 Climbing Winnipeg Center
Sat 07:57:00 PM 49.9167 -95.3333 98° East 440 506 29,600 1,450 Climbing Winnipeg Center
Sat 07:58:00 PM 49.9167 -95.1500 90° East 440 506 31,000 1,350 Climbing Winnipeg Center
Sat 07:59:00 PM 49.9000 -94.9667 98° East 440 506 32,300 1,200 Climbing Winnipeg Center
Sat 08:00:00 PM 49.8667 -94.7833 106° East 440 506 33,400 1,000 Climbing Winnipeg Center
Sat 08:01:00 PM 49.8333 -94.5833 104° East 450 518 34,300 800 Climbing Winnipeg Center
Sat 08:02:00 PM 49.8000 -94.4000 106° East 450 518 35,000 350 Climbing Winnipeg Center
Sat 08:03:00 PM 49.7667 -94.2000 104° East 450 518 35,000  Level Winnipeg Center
Sat 08:04:00 PM 49.7333 -94.0167 106° East 450 518 35,000  Level Winnipeg Center
Sat 08:05:00 PM 49.7000 -93.8333 106° East 450 518 35,000  Level Winnipeg Center
Sat 08:06:00 PM 49.6667 -93.6500 106° East 450 518 35,000  Level Winnipeg Center
Sat 08:07:00 PM 49.6167 -93.4833 115° Southeast 450 518 35,000  Level Winnipeg Center
Sat 08:08:00 PM 49.5833 -93.2833 104° East 450 518 35,000  Level Winnipeg Center
Sat 08:09:00 PM 49.5500 -93.1000 106° East 450 518 35,000  Level Winnipeg Center
Sat 08:10:00 PM 49.5000 -92.9000 111° Southeast 460 529 35,000  Level Winnipeg Center
Sat 08:11:00 PM 49.4667 -92.7167 106° East 470 541 35,000  Level Winnipeg Center
Sat 08:12:00 PM 49.4167 -92.5167 111° Southeast 470 541 35,000  Level Winnipeg Center
Sat 08:13:00 PM 49.4000 -92.3167 97° East 470 541 35,000  Level Winnipeg Center
Sat 08:14:00 PM 49.3500 -92.1167 111° Southeast 470 541 35,000  Level Winnipeg Center
Sat 08:15:00 PM 49.3167 -91.9333 106° East 470 541 35,000  Level Winnipeg Center
Sat 08:16:00 PM 49.2667 -91.7667 115° Southeast 470 541 35,000  Level Winnipeg Center
Sat 08:17:00 PM 49.2333 -91.5667 104° East 470 541 35,000  Level Winnipeg Center
Sat 08:18:00 PM 49.1833 -91.3667 111° Southeast 470 541 35,000  Level Winnipeg Center
Sat 08:19:00 PM 49.1500 -91.1667 104° East 480 552 35,000  Level Winnipeg Center
Sat 08:20:00 PM 49.1000 -90.9833 113° Southeast 480 552 35,000  Level Winnipeg Center
Sat 08:21:00 PM 49.0500 -90.7833 111° Southeast 480 552 35,000  Level Winnipeg Center
Sat 08:22:00 PM 49.0167 -90.5833 104° East 480 552 35,000  Level Winnipeg Center
Sat 08:23:00 PM 48.9667 -90.4167 115° Southeast 480 552 35,000  Level Winnipeg Center
Sat 08:24:00 PM 48.9167 -90.2167 111° Southeast 480 552 35,000  Level Winnipeg Center
Sat 08:25:00 PM 48.8833 -90.0167 104° East 480 552 35,000  Level Winnipeg Center
Sat 08:26:00 PM 48.8333 -89.8167 111° Southeast 480 552 35,000  Level Winnipeg Center
Sat 08:27:00 PM 48.7833 -89.6333 112° Southeast 480 552 35,000  Level Winnipeg Center
Sat 08:28:00 PM 48.7333 -89.4500 112° Southeast 480 552 35,000  Level Winnipeg Center
Sat 08:29:00 PM 48.7000 -89.2500 104° East 480 552 35,000  Level Winnipeg Center
Sat 08:30:00 PM 48.6500 -89.0833 114° Southeast 480 552 35,000  Level Winnipeg Center
Sat 08:31:00 PM 48.5833 -88.9000 119° Southeast 480 552 35,000  Level Winnipeg Center
Sat 08:32:00 PM 48.5167 -88.7333 121° Southeast 480 552 35,000  Level Winnipeg Center
Sat 08:33:00 PM 48.4500 -88.5333 117° Southeast 480 552 35,000  Level Winnipeg Center
Sat 08:34:00 PM 48.4000 -88.3667 114° Southeast 490 564 35,000  Level Winnipeg Center
Sat 08:35:00 PM 48.3333 -88.1833 119° Southeast 490 564 35,000  Level Winnipeg Center
Sat 08:36:00 PM 48.2667 -88.0167 121° Southeast 490 564 35,000  Level Winnipeg Center
Sat 08:37:00 PM 48.2000 -87.8333 119° Southeast 490 564 35,000  Level Winnipeg Center
Sat 08:38:00 PM 48.1333 -87.6333 116° Southeast 490 564 35,000  Level Winnipeg Center
Sat 08:39:00 PM 48.0667 -87.4667 121° Southeast 490 564 35,000  Level Winnipeg Center
Sat 08:40:00 PM 47.9833 -87.2833 124° Southeast 490 564 35,000  Level Winnipeg Center
Sat 08:41:00 PM 47.9167 -87.1167 121° Southeast 480 552 35,000  Level Winnipeg Center
Sat 08:42:00 PM 47.8667 -87.0167 127° Southeast 490 564 35,000  Level Toronto Center
Sat 08:43:00 PM 47.8000 -86.8333 118° Southeast 490 564 35,000  Level Toronto Center
Sat 08:44:00 PM 47.7167 -86.6500 124° Southeast 490 564 35,000  Level Toronto Center
Sat 08:45:00 PM 47.6667 -86.4833 114° Southeast 490 564 35,000  Level Toronto Center
Sat 08:46:00 PM 47.6000 -86.3000 118° Southeast 490 564 35,000  Level Toronto Center
Sat 08:47:00 PM 47.5167 -86.1500 129° Southeast 490 564 35,000  Level Toronto Center
Sat 08:48:00 PM 47.4500 -85.9667 118° Southeast 490 564 35,000  Level Toronto Center
Sat 08:49:00 PM 47.3833 -85.8167 123° Southeast 480 552 35,000  Level Toronto Center
Sat 08:50:00 PM 47.3167 -85.6333 118° Southeast 480 552 35,000  Level Toronto Center
Sat 08:51:00 PM 47.2333 -85.4833 129° Southeast 490 564 35,000  Level Toronto Center
Sat 08:52:00 PM 47.1667 -85.3000 118° Southeast 490 564 35,000  Level Toronto Center
Sat 08:53:00 PM 47.0833 -85.1167 124° Southeast 490 564 35,000  Level Toronto Center
Sat 08:54:00 PM 47.0333 -84.9667 116° Southeast 490 564 35,000  Level Toronto Center
Sat 08:55:00 PM 46.9500 -84.7833 124° Southeast 490 564 35,000  Level Toronto Center
Sat 08:56:00 PM 46.8833 -84.6333 123° Southeast 490 564 35,000  Level Toronto Center
Sat 08:57:00 PM 46.8000 -84.4500 124° Southeast 490 564 35,000  Level Toronto Center
Sat 08:58:00 PM 46.7167 -84.2833 126° Southeast 490 564 35,000  Level Toronto Center
Sat 08:59:00 PM 46.6500 -84.1333 123° Southeast 490 564 35,000  Level Toronto Center
Sat 09:00:00 PM 46.5667 -83.9500 123° Southeast 500 575 35,000  Level Toronto Center
Sat 09:01:00 PM 46.5167 -83.7667 112° Southeast 490 564 35,000  Level Toronto Center
Sat 09:02:00 PM 46.4167 -83.6000 131° Southeast 490 564 35,000  Level Toronto Center
Sat 09:03:00 PM 46.3500 -83.4500 123° Southeast 500 575 35,000  Level Toronto Center
Sat 09:04:00 PM 46.2667 -83.3000 129° Southeast 490 564 35,000  Level Toronto Center
Sat 09:05:00 PM 46.2000 -83.1167 118° Southeast 490 564 35,000  Level Toronto Center
Sat 09:06:00 PM 46.1167 -82.9500 126° Southeast 490 564 35,000  Level Toronto Center
Sat 09:07:00 PM 46.0333 -82.7833 126° Southeast 490 564 35,000  Level Toronto Center
Sat 09:08:00 PM 45.9667 -82.6333 123° Southeast 500 575 35,000  Level Toronto Center
Sat 09:09:00 PM 45.8833 -82.4667 126° Southeast 500 575 35,000  Level Toronto Center
Sat 09:10:00 PM 45.8167 -82.2833 118° Southeast 500 575 35,000  Level Toronto Center
Sat 09:11:00 PM 45.7333 -82.1333 128° Southeast 500 575 35,000  Level Toronto Center
Sat 09:12:00 PM 45.6667 -81.9667 120° Southeast 510 587 35,000  Level Toronto Center
Sat 09:13:00 PM 45.5667 -81.8000 131° Southeast 500 575 35,000  Level Toronto Center
Sat 09:14:00 PM 45.5000 -81.6333 120° Southeast 500 575 35,000  Level Toronto Center
Sat 09:15:00 PM 45.4167 -81.4667 125° Southeast 510 587 35,000  Level Toronto Center
Sat 09:16:00 PM 45.3333 -81.3000 125° Southeast 510 587 35,000  Level Toronto Center
Sat 09:17:00 PM 45.2500 -81.1500 128° Southeast 500 575 35,000  Level Toronto Center
Sat 09:18:00 PM 45.1333 -81.0333 145° Southeast 490 564 35,000 -500 Level Toronto Center
Sat 09:19:00 PM 45.0167 -80.9333 149° Southeast 480 552 34,000 -1,600 Descending Toronto Center
Sat 09:20:00 PM 44.9167 -80.8333 145° Southeast 470 541 31,800 -2,200 Descending Toronto Center
Sat 09:21:00 PM 44.8167 -80.7333 145° Southeast 460 529 29,600 -2,300 Descending Toronto Center
Sat 09:22:00 PM 44.7000 -80.6333 149° Southeast 460 529 27,200 -2,250 Descending Toronto Center
Sat 09:23:00 PM 44.6000 -80.5500 149° Southeast 450 518 25,100 -2,200 Descending Toronto Center
Sat 09:24:00 PM 44.5000 -80.4500 144° Southeast 440 506 22,800 -2,150 Descending Toronto Center
Sat 09:25:00 PM 44.4000 -80.3500 144° Southeast 420 483 20,800 -2,000 Descending Toronto Center
Sat 09:26:00 PM 44.3000 -80.2833 154° Southeast 400 460 18,800 -2,050 Descending Toronto Center
Sat 09:27:00 PM 44.2167 -80.1833 139° Southeast 390 449 16,700 -2,150 Descending Toronto Center
Sat 09:28:00 PM 44.1333 -80.1167 150° Southeast 380 437 14,500 -1,850 Descending Toronto Center
Sat 09:29:00 PM 44.0500 -80.0333 144° Southeast 360 414 13,000 -1,400 Descending Toronto Center
Sat 09:30:00 PM 43.9833 -79.9500 138° Southeast 330 380 11,700 -1,500 Descending Toronto Center
Sat 09:31:00 PM 43.9000 -79.8833 150° Southeast 310 357 10,000 -1,550 Descending Toronto Center
Sat 09:32:00 PM 43.8500 -79.8167 136° Southeast 310 357 8,600 -950 Descending Toronto Center
Sat 09:33:00 PM 43.7833 -79.7500 144° Southeast 280 322 8,100 -850 Descending Toronto Center
Sat 09:34:00 PM 43.7667 -79.6500 103° East 270 311 6,900 -1,200 Descending Toronto Center
Sat 09:35:00 PM 43.8167 -79.5833 44° Northeast 260 299 5,700 -1,200 Descending Toronto Center
Sat 09:36:00 PM 43.8333 -79.5000 74° East 250 288 4,500 -1,000 Descending Toronto Center
Sat 09:37:00 PM 43.8333 -79.4000 90° East 230 265 3,700 -600 Descending Toronto Center
Sat 09:38:00 PM 43.7833 -79.4000 180° South 180 207 3,300 -350 Descending Toronto Center
Sat 09:39:00 PM 43.7500 -79.4500 227° Southwest 160 184 3,000 -550 Descending Toronto Center
Sat 09:40:00 PM 43.7167 -79.5000 227° Southwest 160 184 2,200 -800 Descending Toronto Center
Sat 09:41:00 PM 43.7000 -79.5333 235° Southwest 150 173 1,400 -800 Descending Toronto Center
Sat 09:42:00 PM 43.6667 -79.5833 227° Southwest 140 161 600 -450 Descending Toronto Center
Sat 09:43:00 PM 43.6667 -79.5833 227° Southwest 50 58 500 -100 Descending Toronto Center

Login

Don't have an account? Register now (free) for customized features, flight alerts, and more!